METAR Data
IDs: Format: Raw Decoded Include TAF

Data at: 1053 UTC 26 Sep 2018

KOAJ 260956Z AUTO 24003KT 1/2SM FG OVC002 23/23 A3005 RMK AO2 SLP180 P0001 T02280228
KOAJ 260856Z AUTO 00000KT 1/2SM FG OVC002 23/23 A3005 RMK AO2 SLP179 60002 T02280228 57007
KOAJ 260756Z AUTO 28003KT 1/2SM FG OVC002 23/23 A3005 RMK AO2 SLP181 P0001 T02280228
KOAJ 260710Z AUTO 00000KT 1/2SM FG OVC002 23/23 A3006 RMK AO2
KOAJ 260656Z AUTO 00000KT 1/4SM FG OVC002 23/23 A3006 RMK AO2 SLP183 P0001 T02330233
KOAJ 260648Z AUTO 00000KT 1/4SM FG OVC002 23/23 A3007 RMK AO2 P0001
KOAJ 260556Z AUTO 00000KT 1/2SM FG OVC002 23/23 A3008 RMK AO2 SLP188 P0001 60005 T02330233 10250 20228 56009
KOAJ 260548Z AUTO 00000KT 1/2SM FG OVC002 23/23 A3008 RMK AO2 P0001
KOAJ 260530Z AUTO 00000KT 3/4SM BR OVC002 23/23 A3009 RMK AO2 P0001
KOAJ 260456Z AUTO 00000KT 1 1/2SM BR OVC002 23/23 A3010 RMK AO2 SLP194 T02330233 402890206
KOAJ 260440Z AUTO 35003KT 2SM BR OVC002 23/23 A3010 RMK AO2
KOAJ 260407Z AUTO 35004KT 1 1/4SM BR OVC002 23/23 A3010 RMK AO2
KOAJ 260356Z AUTO 35003KT 3/4SM BR OVC002 23/23 A3010 RMK AO2 SLP197 P0001 T02330233
KOAJ 260350Z AUTO 01003KT 1/2SM FG OVC002 23/23 A3010 RMK AO2
KOAJ 260337Z AUTO 36003KT 1/4SM FG OVC002 23/23 A3011 RMK AO2
KOAJ 260311Z AUTO 34003KT 1/2SM FG BKN002 23/23 A3011 RMK AO2
KOAJ 260307Z AUTO 00000KT 1SM BR BKN002 23/23 A3011 RMK AO2
KOAJ 260304Z AUTO 35003KT 2SM BR BKN002 23/23 A3011 RMK AO2
KOAJ 260256Z AUTO 00000KT 7SM SCT002 23/23 A3011 RMK AO2 SLP198 P0001 60003 T02280228 52003
KOAJ 260156Z AUTO 31003KT 10SM CLR 24/23 A3010 RMK AO2 SLP196 P0001 T02390233
KOAJ 260056Z AUTO 04004KT 10SM FEW007 24/24 A3010 RMK AO2 SLP197 P0001 T02390239
KOAJ 260043Z AUTO 02003KT 10SM FEW007 24/24 A3010 RMK AO2 P0001
KOAJ 252356Z AUTO 00000KT 10SM CLR 25/24 A3010 RMK AO2 SLP195 P0001 6//// T02500239 10283 20250 55002
KOAJ 252256Z AUTO 35004KT 10SM CLR 26/24 A3009 RMK AO2 SLP193 P0001 T02560239
KOAJ 252156Z AUTO 01008KT 10SM CLR 28/24 A3010 RMK AO2 SLP197 P0001 T02780244
KOAJ 252056Z AUTO 05007KT 10SM CLR 28/24 A3010 RMK AO2 SLP197 P0002 6//// T02780239 56006
KOAJ 251956Z AUTO 02005KT 10SM SCT080 27/24 A3010 RMK AO2 TSE1858 SLP197 P0001 T02670239
KOAJ 251909Z AUTO 06006KT 10SM FEW023 SCT095 SCT120 26/25 A3011 RMK AO2 LTG DSNT N TSE1858
KOAJ 251856Z AUTO 05005KT 10SM VCTS FEW025 SCT046 BKN060 26/25 A3012 RMK AO2 LTG DSNT N AND NE AND SW TSE05B30RAB1759E45 SLP202 T02610250
KOAJ 251830Z AUTO 11004KT 10SM VCTS -RA FEW018 BKN043 OVC050 26/26 A3013 RMK AO2 LTG DSNT N AND NE TSE05B30RAB1759
KOAJ 251808Z AUTO 07006KT 2SM +RA BR FEW015 SCT024 BKN035 26/24 A3014 RMK AO2 VIS 3/4V5 LTG DSNT E TSE05RAB1759 PNO $
KOAJ 251756Z AUTO 04010KT 10SM VCTS FEW021 SCT044 SCT060 28/25 A3013 RMK AO2 LTG DSNT N-SE TSB23RAE00 SLP208 P0002 6//// T02830250 10289 20228 58017
KOAJ 251734Z AUTO 04004KT 10SM VCTS FEW065 29/25 A3015 RMK AO2 LTG DSNT NE-SE TSB23RAE00 P0001
KOAJ 251656Z AUTO 05005KT 10SM -RA FEW019 SCT034 BKN049 27/24 A3016 RMK AO2 WSHFT 1620 TSB12E27B28E43RAB25 SLP216 T02670244
KOAJ 251646Z AUTO 04007KT 3SM -RA BR SCT015 BKN022 OVC055 25/24 A3016 RMK AO2 WSHFT 1620 TSB12E27B28E43RAB25 PNO $
KOAJ 251643Z AUTO 03005KT 1 3/4SM RA BR SCT015 BKN023 OVC038 24/24 A3017 RMK AO2 WSHFT 1620 TSB12E27B28E43RAB25 PNO $
KOAJ 251634Z AUTO 05010KT 2SM +TSRA BR FEW015 BKN020 OVC038 24/24 A3018 RMK AO2 WSHFT 1620 VIS 1V5 TSB12E27B28RAB25 P0000
KOAJ 251628Z AUTO 04012G20KT 3SM +TSRA BR BKN017 BKN022 25/23 A3017 RMK AO2 TSB12E27B28RAB25 P0000
KOAJ 251612Z AUTO 00000KT 10SM VCTS BKN019 BKN055 29/25 A3017 RMK AO2 LTG DSNT E TSB12
KOAJ 251556Z AUTO 10003KT 10SM FEW017 SCT029 BKN055 28/25 A3017 RMK AO2 RAB19E53 SLP219 P0001 T02830250
KOAJ 251520Z AUTO 08006KT 4SM RA SCT017 BKN047 OVC060 27/24 A3018 RMK AO2 RAB19 P0000
KOAJ 251456Z AUTO 07007KT 10SM BKN017 OVC024 27/24 A3019 RMK AO2 SLP225 T02720244 58003
KOAJ 251443Z AUTO 04008KT 10SM BKN015 27/24 A3019 RMK AO2
KOAJ 251356Z AUTO 05006KT 10SM BKN011 27/24 A3020 RMK AO2 SLP229 T02670239
KOAJ 251323Z AUTO 03007KT 10SM SCT007 BKN039 26/24 A3020 RMK AO2
KOAJ 251256Z AUTO 02007KT 9SM BKN005 24/24 A3019 RMK AO2 CIG 004V009 SLP228 T02440239
KOAJ 251247Z AUTO 04006KT 9SM BKN005 OVC085 24/24 A3019 RMK AO2 CIG 003V009
KOAJ 251154Z AUTO 03005KT 4SM BR OVC003 23/23 A3019 RMK AO2 CIG 002V008
KOAJ 251133Z AUTO 03006KT 2SM BR OVC003 22/22 A3018 RMK AO2
KOAJ 251056Z AUTO 01005KT 4SM BR OVC003 22/22 A3017 RMK AO2 SLP221 T02220222
KOAJ 250956Z AUTO 03005KT 3SM BR OVC003 22/22 A3016 RMK AO2 SLP216 T02170217
KOAJ 250856Z AUTO 04003KT 4SM BR BKN003 22/21 A3016 RMK AO2 SLP217 60001 T02170211 58010
KOAJ 250756Z AUTO 00000KT 3SM BR OVC003 22/22 A3017 RMK AO2 SLP218 T02170217
KOAJ 250711Z AUTO 04004KT 5SM BR BKN003 21/21 A3019 RMK AO2
KOAJ 250656Z AUTO 01003KT 2 1/2SM BR BKN003 21/21 A3019 RMK AO2 VIS 1V5 SLP225 P0001 T02060206
KOAJ 250653Z AUTO 01003KT 2 1/2SM BR BKN003 21/21 A3019 RMK AO2 VIS 1V5 P0001
KOAJ 250556Z AUTO 01003KT 6SM BR CLR 21/21 A3020 RMK AO2 SLP229 P0001 60012 T02110211 10233 20206 58009
KOAJ 250456Z AUTO 01004KT 7SM CLR 21/21 A3021 RMK AO2 SLP235 P0001 T02060206 402780206
KOAJ 250356Z AUTO 00000KT 6SM BR CLR 21/21 A3023 RMK AO2 SLP239 P0002 T02110211
KOAJ 250332Z AUTO 00000KT 5SM BR FEW028 22/22 A3023 RMK AO2 P0001
KOAJ 250315Z AUTO 00000KT 2SM BR FEW028 SCT035 22/21 A3023 RMK AO2 VIS 1 1/2V2 1/2 P0001
KOAJ 250305Z AUTO 00000KT 1SM BR FEW030 22/21 A3023 RMK AO2
KOAJ 250256Z AUTO 00000KT 2 1/2SM BR FEW030 SCT035 22/22 A3023 RMK AO2 VIS 2V4 SLP239 P0002 60008 T02170217 51015
KOAJ 250156Z AUTO 00000KT 6SM BR CLR 22/22 A3022 RMK AO2 SLP236 P0003 T02220222
KOAJ 250056Z AUTO 00000KT 7SM FEW017 SCT055 23/23 A3020 RMK AO2 SLP230 P0003 T02280228
KOAJ 250043Z AUTO 00000KT 9SM FEW020 BKN055 23/23 A3020 RMK AO2 P0003
KOAJ 242356Z AUTO 22003KT 10SM OVC022 23/23 A3018 RMK AO2 RAE52 SLP224 P0005 60012 T02330228 10278 20233 50005
KOAJ 242256Z AUTO 33003KT 10SM -RA FEW010 SCT015 OVC022 23/23 A3018 RMK AO2 RAB02 SLP224 P0007 T02330228